createdAt,value
2019-05-05T00:01:38.779Z,81.95
2019-05-05T00:04:46.535Z,81.59
2019-05-05T00:07:22.709Z,81.45
2019-05-05T00:09:55.129Z,82.60
2019-05-05T00:13:00.520Z,83.45
2019-05-05T00:15:49.337Z,82.86
2019-05-05T00:18:25.287Z,83.35
2019-05-05T00:20:56.364Z,83.64
2019-05-05T00:23:27.441Z,83.55
2019-05-05T00:25:59.901Z,82.14
2019-05-05T00:28:30.930Z,82.14
2019-05-05T00:31:01.895Z,82.01
2019-05-05T00:33:34.373Z,81.74
2019-05-05T00:36:07.855Z,83.33
2019-05-05T00:38:38.569Z,83.88
2019-05-05T00:41:09.563Z,83.17
2019-05-05T00:43:40.584Z,83.93
2019-05-05T00:46:18.397Z,82.17
2019-05-05T00:48:49.550Z,82.31
2019-05-05T00:51:20.664Z,83.94
2019-05-05T00:53:51.652Z,83.11
2019-05-05T00:56:24.911Z,82.38
2019-05-05T00:59:00.652Z,83.92
2019-05-05T01:01:59.646Z,84.08
2019-05-05T01:04:38.763Z,84.38
2019-05-05T01:07:09.865Z,83.98
2019-05-05T01:09:42.479Z,84.22
2019-05-05T01:12:14.969Z,83.89
2019-05-05T01:14:47.100Z,83.80
2019-05-05T01:17:18.143Z,84.27
2019-05-05T01:20:01.271Z,83.79
2019-05-05T01:22:22.363Z,83.76
2019-05-05T01:24:55.468Z,82.99
2019-05-05T01:27:26.592Z,82.27
2019-05-05T01:29:57.646Z,82.21
2019-05-05T01:32:35.077Z,82.65
2019-05-05T01:35:06.373Z,83.33
2019-05-05T01:37:55.150Z,83.00
2019-05-05T01:40:38.516Z,82.55
2019-05-05T01:43:10.692Z,82.92
2019-05-05T01:45:41.886Z,82.63
2019-05-05T01:48:14.293Z,82.94
2019-05-05T01:50:46.344Z,83.60
2019-05-05T01:53:17.390Z,83.42
2019-05-05T01:55:48.921Z,82.35
2019-05-05T01:58:20.603Z,83.45
2019-05-05T02:00:51.571Z,83.79
2019-05-05T02:03:24.411Z,83.16
2019-05-05T02:05:56.786Z,83.67
2019-05-05T02:08:27.898Z,83.53
2019-05-05T02:10:59.165Z,84.46
2019-05-05T02:13:30.236Z,83.97
2019-05-05T02:16:01.201Z,83.35
2019-05-05T02:18:34.381Z,84.01
2019-05-05T02:21:06.835Z,84.19
2019-05-05T02:23:38.529Z,84.35
2019-05-05T02:26:10.162Z,84.04
2019-05-05T02:28:48.183Z,84.00
2019-05-05T02:31:36.118Z,83.04
2019-05-05T02:34:09.167Z,83.61
2019-05-05T02:36:40.443Z,83.62
2019-05-05T02:39:12.378Z,83.91
2019-05-05T02:41:45.223Z,82.74
2019-05-05T02:44:16.834Z,83.79
2019-05-05T02:46:55.326Z,83.89
2019-05-05T02:49:26.630Z,84.47
2019-05-05T02:51:58.253Z,84.62
2019-05-05T02:54:30.963Z,83.53
2019-05-05T02:57:04.628Z,84.18
2019-05-05T02:59:43.642Z,83.04
2019-05-05T03:02:18.230Z,83.14
2019-05-05T03:04:49.331Z,81.95
2019-05-05T03:07:25.043Z,81.35
2019-05-05T03:09:58.356Z,82.02
2019-05-05T03:12:31.669Z,82.18
2019-05-05T03:15:05.294Z,81.65
2019-05-05T03:17:36.836Z,81.38
2019-05-05T03:20:08.996Z,82.58
2019-05-05T03:22:40.617Z,81.80
2019-05-05T03:25:13.485Z,82.37
2019-05-05T03:27:44.630Z,80.97
2019-05-05T03:30:16.379Z,81.03
2019-05-05T03:32:47.701Z,81.69
2019-05-05T03:35:19.079Z,79.91
2019-05-05T03:37:50.192Z,80.51
2019-05-05T03:40:25.765Z,81.30
2019-05-05T03:43:04.094Z,81.13
2019-05-05T03:45:53.902Z,82.91
2019-05-05T03:48:25.464Z,80.16
2019-05-05T03:50:56.563Z,80.78
2019-05-05T03:53:28.024Z,80.66
2019-05-05T03:55:59.661Z,81.52
2019-05-05T03:58:31.105Z,80.89
2019-05-05T04:01:40.763Z,81.29
2019-05-05T04:04:44.136Z,81.23
2019-05-05T04:07:15.441Z,81.88
2019-05-05T04:09:46.567Z,82.06
2019-05-05T04:12:18.421Z,82.06
2019-05-05T04:14:50.786Z,81.27
2019-05-05T04:17:49.512Z,81.49
2019-05-05T04:20:45.443Z,82.06
2019-05-05T04:23:16.410Z,80.87
2019-05-05T04:25:47.386Z,80.58
2019-05-05T04:28:18.379Z,81.43
2019-05-05T04:30:49.373Z,81.40
2019-05-05T04:33:20.334Z,81.60
2019-05-05T04:35:51.315Z,82.11
2019-05-05T04:38:24.239Z,81.64
2019-05-05T04:40:55.048Z,81.66
2019-05-05T04:43:26.048Z,81.43
2019-05-05T04:45:57.100Z,81.28
2019-05-05T04:48:34.972Z,81.63
2019-05-05T04:51:13.763Z,81.91
2019-05-05T04:54:03.767Z,81.46
2019-05-05T04:56:36.489Z,81.08
2019-05-05T04:59:07.528Z,80.54
2019-05-05T05:01:38.578Z,80.66
2019-05-05T05:04:20.330Z,81.23
2019-05-05T05:06:54.250Z,80.43
2019-05-05T05:09:25.404Z,80.92
2019-05-05T05:11:56.545Z,80.53
2019-05-05T05:14:27.581Z,79.47
2019-05-05T05:17:00.297Z,80.68
2019-05-05T05:19:33.400Z,79.85
2019-05-05T05:22:04.964Z,80.56
2019-05-05T05:24:36.145Z,80.82
2019-05-05T05:27:07.144Z,80.41
2019-05-05T05:29:38.200Z,80.83
2019-05-05T05:32:09.205Z,80.48
2019-05-05T05:34:40.294Z,81.55
2019-05-05T05:37:13.411Z,80.75
2019-05-05T05:39:50.072Z,79.09
2019-05-05T05:42:21.164Z,80.15
2019-05-05T05:45:19.075Z,79.65
2019-05-05T05:48:04.103Z,79.37
2019-05-05T05:50:39.535Z,79.76
2019-05-05T05:53:10.520Z,81.43
2019-05-05T05:55:41.549Z,79.96
2019-05-05T05:58:14.078Z,80.05
2019-05-05T06:00:45.616Z,79.14
2019-05-05T06:03:16.627Z,79.01
2019-05-05T06:05:47.595Z,78.51
2019-05-05T06:08:18.597Z,79.10
2019-05-05T06:10:49.608Z,79.21
2019-05-05T06:13:20.585Z,79.83
2019-05-05T06:15:53.416Z,79.92
2019-05-05T06:18:24.506Z,79.13
2019-05-05T06:20:55.492Z,79.60
2019-05-05T06:23:26.502Z,79.55
2019-05-05T06:25:57.562Z,80.67
2019-05-05T06:28:28.587Z,79.23
2019-05-05T06:30:59.579Z,79.53
2019-05-05T06:33:30.559Z,78.29
2019-05-05T06:36:03.610Z,79.29
2019-05-05T06:38:34.686Z,79.84
2019-05-05T06:41:27.854Z,79.55
2019-05-05T06:44:06.997Z,78.84
2019-05-05T06:46:59.971Z,78.36
2019-05-05T06:49:31.436Z,78.94
2019-05-05T06:52:04.241Z,78.55
2019-05-05T06:54:35.390Z,78.72
2019-05-05T06:57:06.523Z,77.81
2019-05-05T06:59:37.595Z,79.74
2019-05-05T07:02:08.965Z,77.74
2019-05-05T07:04:40.015Z,77.01
2019-05-05T07:07:11.008Z,78.11
2019-05-05T07:09:44.098Z,76.64
2019-05-05T07:12:15.929Z,77.43
2019-05-05T07:14:47.013Z,77.62
2019-05-05T07:17:18.018Z,77.58
2019-05-05T07:19:49.962Z,76.41
2019-05-05T07:22:20.939Z,77.02
2019-05-05T07:24:54.043Z,76.86
2019-05-05T07:27:24.804Z,75.98
2019-05-05T07:29:55.786Z,76.44
2019-05-05T07:32:27.004Z,76.70
2019-05-05T07:35:05.751Z,77.99
2019-05-05T07:37:36.731Z,77.83
2019-05-05T07:40:08.560Z,79.40
2019-05-05T07:42:39.548Z,78.31
2019-05-05T07:45:20.295Z,76.89
2019-05-05T07:47:45.729Z,78.62
2019-05-05T07:50:28.552Z,77.20
2019-05-05T07:52:49.648Z,77.48
2019-05-05T07:55:20.731Z,77.01
2019-05-05T07:57:53.664Z,77.04
2019-05-05T08:00:24.442Z,76.20
2019-05-05T08:02:55.426Z,76.07
2019-05-05T08:05:26.556Z,76.06
2019-05-05T08:07:57.526Z,77.03
2019-05-05T08:10:28.654Z,76.21
2019-05-05T08:13:00.723Z,75.58
2019-05-05T08:15:31.698Z,75.42
2019-05-05T08:18:25.497Z,74.50
2019-05-05T08:20:58.883Z,75.23
2019-05-05T08:23:49.146Z,75.24
2019-05-05T08:26:38.086Z,75.13
2019-05-05T08:29:26.911Z,74.99
2019-05-05T08:32:26.108Z,75.53
2019-05-05T08:35:00.814Z,74.80
2019-05-05T08:37:29.917Z,73.99
2019-05-05T08:40:00.888Z,73.57
2019-05-05T08:42:33.897Z,72.71
2019-05-05T08:45:05.486Z,72.37
2019-05-05T08:47:36.537Z,74.48
2019-05-05T08:50:08.070Z,72.29
2019-05-05T08:52:40.133Z,73.37
2019-05-05T08:55:13.972Z,72.90
2019-05-05T08:57:45.362Z,72.48
2019-05-05T09:00:17.241Z,69.71
2019-05-05T09:02:48.484Z,69.88
2019-05-05T09:05:19.674Z,71.20
2019-05-05T09:07:50.657Z,71.77
2019-05-05T09:10:23.681Z,68.96
2019-05-05T09:12:54.462Z,70.46
2019-05-05T09:15:25.584Z,70.47
2019-05-05T09:17:56.599Z,71.58
2019-05-05T09:20:27.595Z,67.57
2019-05-05T09:22:59.739Z,67.48
2019-05-05T09:25:49.716Z,66.84
2019-05-05T09:28:28.207Z,68.50
2019-05-05T09:30:59.186Z,67.11
2019-05-05T09:33:30.152Z,68.57
2019-05-05T09:36:01.386Z,67.57
2019-05-05T09:38:34.491Z,68.12
2019-05-05T09:41:05.439Z,67.22
2019-05-05T09:43:36.408Z,69.78
2019-05-05T09:46:07.442Z,67.31
2019-05-05T09:48:38.419Z,66.80
2019-05-05T09:51:09.477Z,64.69
2019-05-05T09:53:41.591Z,63.58
2019-05-05T09:56:14.509Z,64.86
2019-05-05T09:58:45.316Z,64.77
2019-05-05T10:01:16.502Z,66.03
2019-05-05T10:03:47.481Z,65.21
2019-05-05T10:06:18.510Z,65.02
2019-05-05T10:08:49.539Z,64.42
2019-05-05T10:11:20.777Z,63.45
2019-05-05T10:13:51.783Z,67.08
2019-05-05T10:16:23.559Z,65.43
2019-05-05T10:18:54.795Z,68.25
2019-05-05T10:21:25.765Z,64.82
2019-05-05T10:23:58.463Z,63.67
2019-05-05T10:26:29.496Z,62.46
2019-05-05T10:29:01.253Z,62.96
2019-05-05T10:31:34.486Z,62.43
2019-05-05T10:34:07.123Z,64.00
2019-05-05T10:36:38.235Z,63.56
2019-05-05T10:39:15.990Z,62.92
2019-05-05T10:41:46.957Z,61.28
2019-05-05T10:44:17.922Z,60.97
2019-05-05T10:46:48.981Z,60.91
2019-05-05T10:49:20.122Z,60.71
2019-05-05T10:51:51.155Z,58.02
2019-05-05T10:54:23.680Z,58.21
2019-05-05T10:56:54.938Z,59.13
2019-05-05T10:59:26.050Z,59.50
2019-05-05T11:01:57.001Z,59.99
2019-05-05T11:04:28.197Z,61.04
2019-05-05T11:06:59.351Z,60.86
2019-05-05T11:09:30.578Z,59.68
2019-05-05T11:12:01.535Z,58.61
2019-05-05T11:14:33.678Z,61.97
2019-05-05T11:17:05.018Z,63.62
2019-05-05T11:19:36.088Z,63.69
2019-05-05T11:22:07.142Z,63.47
2019-05-05T11:24:38.144Z,62.15
2019-05-05T11:27:09.176Z,60.01
2019-05-05T11:29:59.086Z,63.11
2019-05-05T11:32:47.873Z,62.00
2019-05-05T11:35:20.929Z,58.37
2019-05-05T11:37:54.239Z,61.26
2019-05-05T11:40:34.459Z,63.41
2019-05-05T11:43:05.592Z,65.89
2019-05-05T11:45:36.656Z,69.32
2019-05-05T11:48:07.711Z,70.96
2019-05-05T11:50:38.676Z,71.82
2019-05-05T11:53:09.653Z,71.89
2019-05-05T11:55:40.632Z,73.90
2019-05-05T11:58:11.589Z,72.35
2019-05-05T12:00:43.878Z,74.68
2019-05-05T12:03:15.370Z,74.60
2019-05-05T12:05:46.360Z,76.67
2019-05-05T12:08:17.365Z,74.87
2019-05-05T12:10:54.254Z,76.60
2019-05-05T12:13:26.035Z,76.76
2019-05-05T12:16:01.777Z,72.99
2019-05-05T12:18:34.320Z,74.51
2019-05-05T12:21:06.486Z,74.94
2019-05-05T12:23:38.419Z,71.31
2019-05-05T12:26:31.527Z,70.62
2019-05-05T12:29:05.750Z,69.46
2019-05-05T12:31:39.137Z,67.59
2019-05-05T12:34:10.171Z,68.20
2019-05-05T12:36:41.160Z,69.79
2019-05-05T12:39:14.423Z,65.45
2019-05-05T12:41:45.527Z,63.96
2019-05-05T12:44:23.690Z,65.66
2019-05-05T12:47:23.638Z,63.09
2019-05-05T12:49:54.782Z,64.66
2019-05-05T12:52:25.912Z,64.22
2019-05-05T12:54:56.865Z,62.60
2019-05-05T12:57:27.855Z,61.55
2019-05-05T12:59:58.814Z,63.96
2019-05-05T13:02:29.808Z,62.56
2019-05-05T13:05:00.814Z,63.45
2019-05-05T13:07:33.691Z,61.88
2019-05-05T13:10:05.932Z,63.09
2019-05-05T13:12:38.374Z,62.46
2019-05-05T13:15:09.530Z,64.83
2019-05-05T13:17:40.644Z,64.99
2019-05-05T13:20:18.296Z,60.94
2019-05-05T13:23:10.729Z,63.68
2019-05-05T13:25:55.954Z,62.25
2019-05-05T13:28:24.128Z,62.52
2019-05-05T13:30:55.134Z,59.86
2019-05-05T13:33:26.122Z,59.26
2019-05-05T13:35:57.103Z,60.88
2019-05-05T13:38:28.103Z,62.43
2019-05-05T13:40:59.148Z,60.37
2019-05-05T13:43:30.117Z,59.83
2019-05-05T13:46:10.217Z,63.04
2019-05-05T13:48:41.267Z,62.97
2019-05-05T13:51:14.606Z,64.45
2019-05-05T13:53:45.583Z,67.64
2019-05-05T13:56:17.620Z,70.30
2019-05-05T13:58:48.699Z,74.46
2019-05-05T14:01:19.834Z,76.78
2019-05-05T14:03:50.904Z,78.33
2019-05-05T14:06:24.141Z,79.42
2019-05-05T14:08:55.014Z,80.95
2019-05-05T14:11:25.980Z,80.47
2019-05-05T14:13:57.270Z,79.89
2019-05-05T14:16:28.271Z,77.56
2019-05-05T14:18:59.670Z,77.78
2019-05-05T14:21:33.816Z,77.69
2019-05-05T14:24:29.591Z,75.82
2019-05-05T14:27:00.720Z,72.99
2019-05-05T14:29:43.886Z,73.21
2019-05-05T14:32:17.123Z,74.89
2019-05-05T14:34:54.692Z,72.42
2019-05-05T14:37:34.002Z,70.91
2019-05-05T14:40:05.913Z,71.19
2019-05-05T14:42:36.977Z,69.82
2019-05-05T14:45:08.468Z,71.52
2019-05-05T14:47:39.528Z,67.63
2019-05-05T14:50:10.783Z,70.58
2019-05-05T14:52:41.765Z,69.40
2019-05-05T14:55:14.089Z,67.67
2019-05-05T14:57:45.166Z,67.13
2019-05-05T15:00:19.581Z,67.72
2019-05-05T15:02:50.926Z,69.24
2019-05-05T15:05:39.773Z,69.04
2019-05-05T15:08:18.899Z,65.85
2019-05-05T15:11:10.921Z,67.21
2019-05-05T15:13:43.738Z,66.17
2019-05-05T15:16:14.892Z,65.22
2019-05-05T15:18:45.950Z,68.41
2019-05-05T15:21:16.967Z,68.07
2019-05-05T15:23:47.926Z,66.52
2019-05-05T15:26:18.914Z,66.92
2019-05-05T15:28:59.273Z,64.21
2019-05-05T15:31:23.830Z,66.14
2019-05-05T15:33:54.920Z,67.27
2019-05-05T15:36:26.191Z,63.57
2019-05-05T15:38:57.409Z,64.76
2019-05-05T15:41:28.703Z,64.47
2019-05-05T15:43:59.762Z,66.64
2019-05-05T15:46:30.771Z,65.76
2019-05-05T15:49:01.812Z,66.47
2019-05-05T15:51:34.343Z,67.05
2019-05-05T15:54:05.643Z,67.50
2019-05-05T15:56:36.656Z,66.40
2019-05-05T15:59:07.614Z,67.79
2019-05-05T16:01:38.604Z,68.92
2019-05-05T16:04:09.711Z,67.59
2019-05-05T16:06:40.731Z,64.04
2019-05-05T16:09:13.615Z,65.73
2019-05-05T16:11:46.809Z,63.98
2019-05-05T16:14:17.166Z,64.33
2019-05-05T16:17:00.068Z,64.35
2019-05-05T16:19:39.096Z,66.82
2019-05-05T16:22:14.544Z,68.46
2019-05-05T16:24:47.713Z,68.91
2019-05-05T16:27:22.125Z,69.72
2019-05-05T16:29:51.387Z,68.46
2019-05-05T16:32:24.817Z,67.56
2019-05-05T16:34:55.280Z,69.30
2019-05-05T16:37:26.313Z,67.00
2019-05-05T16:39:57.360Z,68.54
2019-05-05T16:42:28.402Z,67.77
2019-05-05T16:44:59.369Z,67.83
2019-05-05T16:47:30.379Z,65.16
2019-05-05T16:50:01.353Z,66.53
2019-05-05T16:52:37.290Z,67.38
2019-05-05T16:55:18.419Z,64.91
2019-05-05T16:57:49.570Z,66.54
2019-05-05T17:00:21.745Z,64.44
2019-05-05T17:02:54.313Z,64.90
2019-05-05T17:05:25.344Z,64.19
2019-05-05T17:07:58.444Z,64.34
2019-05-05T17:10:29.116Z,61.47
2019-05-05T17:13:03.109Z,61.06
2019-05-05T17:15:58.751Z,60.28
2019-05-05T17:18:47.759Z,60.58
2019-05-05T17:21:26.190Z,58.56
2019-05-05T17:23:57.159Z,60.63
2019-05-05T17:26:28.251Z,54.68
2019-05-05T17:28:59.366Z,55.11
2019-05-05T17:31:30.350Z,54.46
2019-05-05T17:34:01.455Z,53.77
2019-05-05T17:36:32.491Z,55.60
2019-05-05T17:39:05.332Z,57.39
2019-05-05T17:41:54.087Z,55.03
2019-05-05T17:44:38.538Z,55.26
2019-05-05T17:47:19.220Z,55.62
2019-05-05T17:49:57.818Z,57.84
2019-05-05T17:52:35.230Z,55.88
2019-05-05T17:55:24.262Z,58.16
2019-05-05T17:58:01.547Z,57.07
2019-05-05T18:00:30.312Z,60.22
2019-05-05T18:03:01.277Z,60.90
2019-05-05T18:06:09.469Z,62.72
2019-05-05T18:08:44.517Z,63.07
2019-05-05T18:11:25.391Z,63.77
2019-05-05T18:14:01.115Z,65.15
2019-05-05T18:16:33.863Z,66.64
2019-05-05T18:19:04.830Z,67.49
2019-05-05T18:21:35.828Z,67.81
2019-05-05T18:24:06.830Z,66.82
2019-05-05T18:26:37.852Z,68.03
2019-05-05T18:29:08.830Z,67.58
2019-05-05T18:31:39.794Z,66.42
2019-05-05T18:34:10.757Z,65.92
2019-05-05T18:36:41.751Z,65.44
2019-05-05T18:39:13.768Z,66.38
2019-05-05T18:41:50.514Z,69.81
2019-05-05T18:44:33.359Z,73.24
2019-05-05T18:47:18.773Z,74.98
2019-05-05T18:49:50.120Z,74.52
2019-05-05T18:52:21.104Z,73.84
2019-05-05T18:54:54.230Z,72.76
2019-05-05T18:57:24.853Z,72.77
2019-05-05T18:59:56.060Z,73.18
2019-05-05T19:02:40.109Z,74.81
2019-05-05T19:05:24.245Z,73.22
2019-05-05T19:08:07.720Z,74.47
2019-05-05T19:10:38.935Z,74.13
2019-05-05T19:13:10.002Z,73.59
2019-05-05T19:15:41.035Z,73.84
2019-05-05T19:18:14.065Z,74.04
2019-05-05T19:21:09.847Z,72.65
2019-05-05T19:23:41.296Z,72.13
2019-05-05T19:26:14.446Z,73.42
2019-05-05T19:28:49.906Z,72.94
2019-05-05T19:31:17.858Z,73.62
2019-05-05T19:33:48.906Z,74.25
2019-05-05T19:36:19.877Z,74.43
2019-05-05T19:38:50.870Z,74.47
2019-05-05T19:41:23.747Z,75.03
2019-05-05T19:43:55.125Z,74.30
2019-05-05T19:46:35.752Z,73.99
2019-05-05T19:49:19.357Z,75.01
2019-05-05T19:51:50.570Z,75.09
2019-05-05T19:54:21.610Z,74.23
2019-05-05T19:56:54.269Z,75.43
2019-05-05T19:59:25.506Z,74.46
2019-05-05T20:01:56.549Z,75.02
2019-05-05T20:04:27.604Z,75.39
2019-05-05T20:06:58.581Z,75.81
2019-05-05T20:09:29.696Z,75.32
2019-05-05T20:12:00.663Z,75.02
2019-05-05T20:14:33.979Z,74.71
2019-05-05T20:17:14.619Z,74.87
2019-05-05T20:19:46.161Z,74.53
2019-05-05T20:22:17.289Z,76.33
2019-05-05T20:24:48.267Z,75.24
2019-05-05T20:27:19.274Z,76.14
2019-05-05T20:29:50.327Z,76.43
2019-05-05T20:32:28.650Z,75.46
2019-05-05T20:35:08.641Z,75.24
2019-05-05T20:37:46.587Z,76.24
2019-05-05T20:40:19.739Z,78.17
2019-05-05T20:42:50.697Z,76.46
2019-05-05T20:45:24.947Z,76.60
2019-05-05T20:47:55.911Z,76.21
2019-05-05T20:50:26.901Z,75.63
2019-05-05T20:52:57.879Z,75.87
2019-05-05T20:55:28.916Z,75.71
2019-05-05T20:57:59.908Z,75.10
2019-05-05T21:00:31.029Z,75.57
2019-05-05T21:03:02.029Z,75.45
2019-05-05T21:05:34.347Z,75.86
2019-05-05T21:08:05.565Z,77.16
2019-05-05T21:10:37.782Z,76.42
2019-05-05T21:13:09.883Z,76.03
2019-05-05T21:15:41.080Z,75.93
2019-05-05T21:18:14.220Z,76.23
2019-05-05T21:20:44.791Z,75.94
2019-05-05T21:23:29.235Z,75.31
2019-05-05T21:26:11.341Z,75.56
2019-05-05T21:28:44.369Z,75.72
2019-05-05T21:31:14.985Z,75.20
2019-05-05T21:33:46.440Z,75.03
2019-05-05T21:36:17.541Z,74.83
2019-05-05T21:38:48.548Z,75.45
2019-05-05T21:41:19.506Z,75.45
2019-05-05T21:43:50.464Z,75.68
2019-05-05T21:46:21.440Z,75.46
2019-05-05T21:48:54.360Z,75.22
2019-05-05T21:51:34.866Z,75.81
2019-05-05T21:54:23.577Z,75.10
2019-05-05T21:57:10.255Z,74.83
2019-05-05T21:59:54.432Z,77.50
2019-05-05T22:02:15.305Z,75.77
2019-05-05T22:04:46.565Z,75.42
2019-05-05T22:07:17.624Z,75.10
2019-05-05T22:09:48.606Z,74.67
2019-05-05T22:12:19.593Z,75.05
2019-05-05T22:14:50.574Z,75.29
2019-05-05T22:17:22.784Z,75.74
2019-05-05T22:20:09.943Z,75.20
2019-05-05T22:22:45.032Z,75.89
2019-05-05T22:25:16.133Z,76.33
2019-05-05T22:27:47.123Z,76.24
2019-05-05T22:30:18.279Z,75.95
2019-05-05T22:32:49.317Z,76.01
2019-05-05T22:35:20.781Z,74.88
2019-05-05T22:37:51.766Z,75.28
2019-05-05T22:40:24.333Z,75.28
2019-05-05T22:42:55.615Z,75.79
2019-05-05T22:45:26.575Z,75.69
2019-05-05T22:47:57.566Z,75.85
2019-05-05T22:50:28.523Z,76.20
2019-05-05T22:52:59.601Z,76.16
2019-05-05T22:55:30.574Z,77.10
2019-05-05T22:58:03.836Z,77.58
2019-05-05T23:00:34.903Z,77.94
2019-05-05T23:03:13.693Z,77.46
2019-05-05T23:05:54.714Z,76.63
2019-05-05T23:08:25.883Z,75.95
2019-05-05T23:10:56.846Z,76.50
2019-05-05T23:13:27.843Z,75.17
2019-05-05T23:16:15.121Z,76.06
2019-05-05T23:18:46.191Z,77.48
2019-05-05T23:21:29.901Z,76.78
2019-05-05T23:24:18.654Z,76.61
2019-05-05T23:26:51.331Z,76.51
2019-05-05T23:29:24.217Z,76.51
2019-05-05T23:31:55.302Z,76.29
2019-05-05T23:34:26.372Z,76.33
2019-05-05T23:36:57.332Z,75.47
2019-05-05T23:39:28.475Z,77.00
2019-05-05T23:41:59.465Z,78.86
2019-05-05T23:44:30.445Z,79.71
2019-05-05T23:47:01.402Z,79.76
2019-05-05T23:49:32.409Z,79.17
2019-05-05T23:52:04.389Z,77.85
2019-05-05T23:54:35.450Z,77.64
2019-05-05T23:57:06.452Z,77.96
2019-05-05T23:59:37.469Z,78.13
